sensor_id;sensor_type;location;lat;lon;timestamp;P1;durP1;ratioP1;P2;durP2;ratioP2
32236;SDS011;18726;44.732;10.550;2022-07-17T00:00:35;9.25;;;7.47;;
32236;SDS011;18726;44.732;10.550;2022-07-17T00:03:39;8.02;;;6.75;;
32236;SDS011;18726;44.732;10.550;2022-07-17T00:06:43;11.82;;;9.35;;
32236;SDS011;18726;44.732;10.550;2022-07-17T00:09:47;9.68;;;8.68;;
32236;SDS011;18726;44.732;10.550;2022-07-17T00:12:51;12.30;;;11.15;;
32236;SDS011;18726;44.732;10.550;2022-07-17T00:15:56;13.52;;;9.73;;
32236;SDS011;18726;44.732;10.550;2022-07-17T00:19:00;11.68;;;10.25;;
32236;SDS011;18726;44.732;10.550;2022-07-17T00:22:04;10.65;;;9.13;;
32236;SDS011;18726;44.732;10.550;2022-07-17T00:25:07;8.98;;;8.13;;
32236;SDS011;18726;44.732;10.550;2022-07-17T00:28:11;9.85;;;8.95;;
32236;SDS011;18726;44.732;10.550;2022-07-17T00:31:15;11.68;;;9.32;;
32236;SDS011;18726;44.732;10.550;2022-07-17T00:34:19;10.60;;;9.65;;
32236;SDS011;18726;44.732;10.550;2022-07-17T00:37:22;10.02;;;9.02;;
32236;SDS011;18726;44.732;10.550;2022-07-17T00:40:26;10.63;;;8.63;;
32236;SDS011;18726;44.732;10.550;2022-07-17T00:43:30;8.70;;;7.80;;
32236;SDS011;18726;44.732;10.550;2022-07-17T00:46:34;11.63;;;10.52;;
32236;SDS011;18726;44.732;10.550;2022-07-17T00:49:38;11.02;;;9.88;;
32236;SDS011;18726;44.732;10.550;2022-07-17T00:52:42;11.50;;;9.35;;
32236;SDS011;18726;44.732;10.550;2022-07-17T00:55:47;16.98;;;9.52;;
32236;SDS011;18726;44.732;10.550;2022-07-17T00:58:51;9.30;;;7.80;;
32236;SDS011;18726;44.732;10.550;2022-07-17T01:01:55;12.32;;;10.85;;
32236;SDS011;18726;44.732;10.550;2022-07-17T01:04:58;10.50;;;9.57;;
32236;SDS011;18726;44.732;10.550;2022-07-17T01:08:02;11.85;;;10.65;;
32236;SDS011;18726;44.732;10.550;2022-07-17T01:11:07;12.88;;;11.68;;
32236;SDS011;18726;44.732;10.550;2022-07-17T01:14:11;12.82;;;11.73;;
32236;SDS011;18726;44.732;10.550;2022-07-17T01:17:15;13.07;;;11.77;;
32236;SDS011;18726;44.732;10.550;2022-07-17T01:20:20;17.38;;;12.20;;
32236;SDS011;18726;44.732;10.550;2022-07-17T01:23:24;19.48;;;13.10;;
32236;SDS011;18726;44.732;10.550;2022-07-17T01:26:28;12.70;;;11.50;;
32236;SDS011;18726;44.732;10.550;2022-07-17T01:29:32;13.75;;;12.45;;
32236;SDS011;18726;44.732;10.550;2022-07-17T01:32:39;14.15;;;12.68;;
32236;SDS011;18726;44.732;10.550;2022-07-17T01:35:44;13.82;;;12.55;;
32236;SDS011;18726;44.732;10.550;2022-07-17T01:38:48;14.35;;;12.82;;
32236;SDS011;18726;44.732;10.550;2022-07-17T01:41:51;16.85;;;13.77;;
32236;SDS011;18726;44.732;10.550;2022-07-17T01:44:55;17.92;;;14.48;;
32236;SDS011;18726;44.732;10.550;2022-07-17T01:47:59;17.85;;;14.13;;
32236;SDS011;18726;44.732;10.550;2022-07-17T01:51:03;18.02;;;13.85;;
32236;SDS011;18726;44.732;10.550;2022-07-17T01:54:07;15.70;;;14.38;;
32236;SDS011;18726;44.732;10.550;2022-07-17T01:57:10;16.45;;;14.95;;
32236;SDS011;18726;44.732;10.550;2022-07-17T02:00:15;16.92;;;15.13;;
32236;SDS011;18726;44.732;10.550;2022-07-17T02:03:21;15.05;;;13.82;;
32236;SDS011;18726;44.732;10.550;2022-07-17T02:06:25;14.70;;;13.23;;
32236;SDS011;18726;44.732;10.550;2022-07-17T02:09:29;17.20;;;15.00;;
32236;SDS011;18726;44.732;10.550;2022-07-17T02:12:33;17.50;;;14.43;;
32236;SDS011;18726;44.732;10.550;2022-07-17T02:15:37;15.68;;;14.05;;
32236;SDS011;18726;44.732;10.550;2022-07-17T02:18:41;17.33;;;14.15;;
32236;SDS011;18726;44.732;10.550;2022-07-17T02:21:45;17.95;;;16.15;;
32236;SDS011;18726;44.732;10.550;2022-07-17T02:24:49;17.58;;;15.93;;
32236;SDS011;18726;44.732;10.550;2022-07-17T02:27:52;19.48;;;15.80;;
32236;SDS011;18726;44.732;10.550;2022-07-17T02:30:56;17.10;;;15.25;;
32236;SDS011;18726;44.732;10.550;2022-07-17T02:33:59;18.08;;;15.52;;
32236;SDS011;18726;44.732;10.550;2022-07-17T02:37:03;17.30;;;15.18;;
32236;SDS011;18726;44.732;10.550;2022-07-17T02:40:07;19.25;;;15.40;;
32236;SDS011;18726;44.732;10.550;2022-07-17T02:43:11;15.98;;;14.38;;
32236;SDS011;18726;44.732;10.550;2022-07-17T02:46:14;16.60;;;13.50;;
32236;SDS011;18726;44.732;10.550;2022-07-17T02:49:18;14.80;;;13.20;;
32236;SDS011;18726;44.732;10.550;2022-07-17T02:52:21;16.90;;;14.63;;
32236;SDS011;18726;44.732;10.550;2022-07-17T02:55:25;15.82;;;13.32;;
32236;SDS011;18726;44.732;10.550;2022-07-17T02:58:29;14.35;;;13.05;;
32236;SDS011;18726;44.732;10.550;2022-07-17T03:01:32;18.63;;;13.68;;
32236;SDS011;18726;44.732;10.550;2022-07-17T03:04:36;14.80;;;13.40;;
32236;SDS011;18726;44.732;10.550;2022-07-17T03:07:40;15.73;;;13.75;;
32236;SDS011;18726;44.732;10.550;2022-07-17T03:10:44;16.58;;;14.02;;
32236;SDS011;18726;44.732;10.550;2022-07-17T03:13:48;17.23;;;15.13;;
32236;SDS011;18726;44.732;10.550;2022-07-17T03:16:51;16.92;;;13.98;;
32236;SDS011;18726;44.732;10.550;2022-07-17T03:19:55;15.48;;;14.07;;
32236;SDS011;18726;44.732;10.550;2022-07-17T03:22:59;17.00;;;14.77;;
32236;SDS011;18726;44.732;10.550;2022-07-17T03:26:03;16.65;;;14.95;;
32236;SDS011;18726;44.732;10.550;2022-07-17T03:29:06;16.15;;;14.50;;
32236;SDS011;18726;44.732;10.550;2022-07-17T03:32:09;16.58;;;14.68;;
32236;SDS011;18726;44.732;10.550;2022-07-17T03:35:13;18.45;;;14.73;;
32236;SDS011;18726;44.732;10.550;2022-07-17T03:38:17;16.10;;;14.40;;
32236;SDS011;18726;44.732;10.550;2022-07-17T03:41:20;16.25;;;14.35;;
32236;SDS011;18726;44.732;10.550;2022-07-17T03:44:24;13.70;;;12.40;;
32236;SDS011;18726;44.732;10.550;2022-07-17T03:47:27;11.63;;;10.63;;
32236;SDS011;18726;44.732;10.550;2022-07-17T03:50:31;16.13;;;13.80;;
32236;SDS011;18726;44.732;10.550;2022-07-17T03:53:35;16.17;;;14.55;;
32236;SDS011;18726;44.732;10.550;2022-07-17T03:56:39;16.02;;;14.43;;
32236;SDS011;18726;44.732;10.550;2022-07-17T03:59:42;16.90;;;15.20;;
32236;SDS011;18726;44.732;10.550;2022-07-17T04:02:46;18.52;;;15.05;;
32236;SDS011;18726;44.732;10.550;2022-07-17T04:05:50;17.52;;;14.93;;
32236;SDS011;18726;44.732;10.550;2022-07-17T04:08:54;18.90;;;17.08;;
32236;SDS011;18726;44.732;10.550;2022-07-17T04:11:57;17.83;;;15.48;;
32236;SDS011;18726;44.732;10.550;2022-07-17T04:15:01;16.40;;;14.80;;
32236;SDS011;18726;44.732;10.550;2022-07-17T04:18:05;18.67;;;15.77;;
32236;SDS011;18726;44.732;10.550;2022-07-17T04:21:09;15.95;;;14.40;;
32236;SDS011;18726;44.732;10.550;2022-07-17T04:24:13;16.85;;;14.98;;
32236;SDS011;18726;44.732;10.550;2022-07-17T04:27:17;21.20;;;18.80;;
32236;SDS011;18726;44.732;10.550;2022-07-17T04:30:21;20.48;;;18.30;;
32236;SDS011;18726;44.732;10.550;2022-07-17T04:33:25;20.40;;;18.30;;
32236;SDS011;18726;44.732;10.550;2022-07-17T04:36:29;17.60;;;15.95;;
32236;SDS011;18726;44.732;10.550;2022-07-17T04:39:32;16.88;;;15.25;;
32236;SDS011;18726;44.732;10.550;2022-07-17T04:42:36;16.80;;;15.00;;
32236;SDS011;18726;44.732;10.550;2022-07-17T04:45:40;20.70;;;18.17;;
32236;SDS011;18726;44.732;10.550;2022-07-17T04:48:44;22.17;;;18.65;;
32236;SDS011;18726;44.732;10.550;2022-07-17T04:51:48;17.48;;;15.88;;
32236;SDS011;18726;44.732;10.550;2022-07-17T04:54:52;12.73;;;11.52;;
32236;SDS011;18726;44.732;10.550;2022-07-17T04:57:56;12.88;;;11.60;;
32236;SDS011;18726;44.732;10.550;2022-07-17T05:01:00;11.00;;;10.00;;
32236;SDS011;18726;44.732;10.550;2022-07-17T05:04:03;14.55;;;13.30;;
32236;SDS011;18726;44.732;10.550;2022-07-17T05:07:07;14.43;;;12.80;;
32236;SDS011;18726;44.732;10.550;2022-07-17T05:10:11;15.05;;;13.00;;
32236;SDS011;18726;44.732;10.550;2022-07-17T05:13:15;13.65;;;12.40;;
32236;SDS011;18726;44.732;10.550;2022-07-17T05:16:18;14.68;;;13.18;;
32236;SDS011;18726;44.732;10.550;2022-07-17T05:19:22;10.25;;;8.85;;
32236;SDS011;18726;44.732;10.550;2022-07-17T05:22:26;10.15;;;9.15;;
32236;SDS011;18726;44.732;10.550;2022-07-17T05:25:30;12.15;;;10.50;;
32236;SDS011;18726;44.732;10.550;2022-07-17T05:28:35;13.75;;;10.38;;
32236;SDS011;18726;44.732;10.550;2022-07-17T05:31:38;11.57;;;9.32;;
32236;SDS011;18726;44.732;10.550;2022-07-17T05:34:42;12.07;;;10.85;;
32236;SDS011;18726;44.732;10.550;2022-07-17T05:37:46;9.45;;;7.95;;
32236;SDS011;18726;44.732;10.550;2022-07-17T05:40:49;10.77;;;9.73;;
32236;SDS011;18726;44.732;10.550;2022-07-17T05:43:52;17.88;;;10.15;;
32236;SDS011;18726;44.732;10.550;2022-07-17T05:46:56;10.55;;;9.27;;
32236;SDS011;18726;44.732;10.550;2022-07-17T05:49:59;7.07;;;6.40;;
32236;SDS011;18726;44.732;10.550;2022-07-17T05:53:03;10.43;;;9.52;;
32236;SDS011;18726;44.732;10.550;2022-07-17T05:56:06;9.68;;;8.75;;
32236;SDS011;18726;44.732;10.550;2022-07-17T05:59:10;10.60;;;9.30;;
32236;SDS011;18726;44.732;10.550;2022-07-17T06:02:13;9.88;;;8.88;;
32236;SDS011;18726;44.732;10.550;2022-07-17T06:05:17;11.18;;;9.13;;
32236;SDS011;18726;44.732;10.550;2022-07-17T06:08:21;9.85;;;8.55;;
32236;SDS011;18726;44.732;10.550;2022-07-17T06:11:24;14.05;;;8.35;;
32236;SDS011;18726;44.732;10.550;2022-07-17T06:14:28;9.00;;;8.10;;
32236;SDS011;18726;44.732;10.550;2022-07-17T06:17:31;10.27;;;7.47;;
32236;SDS011;18726;44.732;10.550;2022-07-17T06:20:35;8.93;;;8.23;;
32236;SDS011;18726;44.732;10.550;2022-07-17T06:23:39;9.13;;;7.60;;
32236;SDS011;18726;44.732;10.550;2022-07-17T06:26:42;10.88;;;8.07;;
32236;SDS011;18726;44.732;10.550;2022-07-17T06:29:45;7.75;;;6.95;;
32236;SDS011;18726;44.732;10.550;2022-07-17T06:32:49;8.57;;;6.82;;
32236;SDS011;18726;44.732;10.550;2022-07-17T06:35:53;10.88;;;8.05;;
32236;SDS011;18726;44.732;10.550;2022-07-17T06:38:57;10.27;;;8.88;;
32236;SDS011;18726;44.732;10.550;2022-07-17T06:42:02;13.10;;;8.02;;
32236;SDS011;18726;44.732;10.550;2022-07-17T06:45:06;9.82;;;8.82;;
32236;SDS011;18726;44.732;10.550;2022-07-17T06:48:10;13.18;;;8.75;;
32236;SDS011;18726;44.732;10.550;2022-07-17T06:51:14;10.43;;;7.78;;
32236;SDS011;18726;44.732;10.550;2022-07-17T06:54:18;10.25;;;8.73;;
32236;SDS011;18726;44.732;10.550;2022-07-17T06:57:22;12.18;;;8.40;;
32236;SDS011;18726;44.732;10.550;2022-07-17T07:00:26;12.20;;;9.50;;
32236;SDS011;18726;44.732;10.550;2022-07-17T07:03:30;8.80;;;8.00;;
32236;SDS011;18726;44.732;10.550;2022-07-17T07:06:33;12.20;;;8.52;;
32236;SDS011;18726;44.732;10.550;2022-07-17T07:09:37;11.43;;;8.60;;
32236;SDS011;18726;44.732;10.550;2022-07-17T07:12:41;11.77;;;9.68;;
32236;SDS011;18726;44.732;10.550;2022-07-17T07:15:44;14.18;;;9.70;;
32236;SDS011;18726;44.732;10.550;2022-07-17T07:18:48;10.63;;;8.10;;
32236;SDS011;18726;44.732;10.550;2022-07-17T07:21:52;11.68;;;9.55;;
32236;SDS011;18726;44.732;10.550;2022-07-17T07:24:56;9.07;;;8.18;;
32236;SDS011;18726;44.732;10.550;2022-07-17T07:28:00;10.23;;;8.15;;
32236;SDS011;18726;44.732;10.550;2022-07-17T07:31:03;8.27;;;7.47;;
32236;SDS011;18726;44.732;10.550;2022-07-17T07:34:07;12.20;;;8.13;;
32236;SDS011;18726;44.732;10.550;2022-07-17T07:37:11;18.65;;;9.00;;
32236;SDS011;18726;44.732;10.550;2022-07-17T07:40:15;9.35;;;7.43;;
32236;SDS011;18726;44.732;10.550;2022-07-17T07:43:18;8.65;;;7.32;;
32236;SDS011;18726;44.732;10.550;2022-07-17T07:46:22;10.77;;;8.10;;
32236;SDS011;18726;44.732;10.550;2022-07-17T07:49:26;9.18;;;7.97;;
32236;SDS011;18726;44.732;10.550;2022-07-17T07:52:29;9.18;;;8.35;;
32236;SDS011;18726;44.732;10.550;2022-07-17T07:55:33;8.68;;;7.90;;
32236;SDS011;18726;44.732;10.550;2022-07-17T07:58:36;11.98;;;7.80;;
32236;SDS011;18726;44.732;10.550;2022-07-17T08:01:40;8.95;;;8.05;;
32236;SDS011;18726;44.732;10.550;2022-07-17T08:04:43;10.18;;;8.23;;
32236;SDS011;18726;44.732;10.550;2022-07-17T08:07:47;9.45;;;7.75;;
32236;SDS011;18726;44.732;10.550;2022-07-17T08:10:51;11.10;;;8.50;;
32236;SDS011;18726;44.732;10.550;2022-07-17T08:13:55;11.95;;;9.32;;
32236;SDS011;18726;44.732;10.550;2022-07-17T08:16:58;9.93;;;8.25;;
32236;SDS011;18726;44.732;10.550;2022-07-17T08:20:02;10.57;;;8.77;;
32236;SDS011;18726;44.732;10.550;2022-07-17T08:23:06;9.40;;;8.00;;
32236;SDS011;18726;44.732;10.550;2022-07-17T08:26:11;11.40;;;8.35;;
32236;SDS011;18726;44.732;10.550;2022-07-17T08:29:15;8.00;;;7.25;;
32236;SDS011;18726;44.732;10.550;2022-07-17T08:32:19;8.60;;;6.65;;
32236;SDS011;18726;44.732;10.550;2022-07-17T08:35:22;7.13;;;6.43;;
32236;SDS011;18726;44.732;10.550;2022-07-17T08:38:26;8.38;;;7.28;;
32236;SDS011;18726;44.732;10.550;2022-07-17T08:41:29;10.68;;;8.35;;
32236;SDS011;18726;44.732;10.550;2022-07-17T08:44:33;7.38;;;6.13;;
32236;SDS011;18726;44.732;10.550;2022-07-17T08:47:37;8.90;;;6.68;;
32236;SDS011;18726;44.732;10.550;2022-07-17T08:50:42;10.02;;;7.30;;
32236;SDS011;18726;44.732;10.550;2022-07-17T08:53:46;7.63;;;6.82;;
32236;SDS011;18726;44.732;10.550;2022-07-17T08:56:49;8.07;;;7.32;;
32236;SDS011;18726;44.732;10.550;2022-07-17T08:59:53;10.13;;;7.20;;
32236;SDS011;18726;44.732;10.550;2022-07-17T09:02:58;7.47;;;6.78;;
32236;SDS011;18726;44.732;10.550;2022-07-17T09:06:04;8.88;;;7.55;;
32236;SDS011;18726;44.732;10.550;2022-07-17T09:09:09;8.40;;;6.40;;
32236;SDS011;18726;44.732;10.550;2022-07-17T09:12:15;7.90;;;7.10;;
32236;SDS011;18726;44.732;10.550;2022-07-17T09:15:19;9.85;;;7.47;;
32236;SDS011;18726;44.732;10.550;2022-07-17T09:18:23;7.65;;;6.88;;
32236;SDS011;18726;44.732;10.550;2022-07-17T09:21:28;9.88;;;6.82;;
32236;SDS011;18726;44.732;10.550;2022-07-17T09:24:43;8.05;;;7.25;;
32236;SDS011;18726;44.732;10.550;2022-07-17T09:27:56;9.00;;;6.82;;
32236;SDS011;18726;44.732;10.550;2022-07-17T09:31:00;8.73;;;6.68;;
32236;SDS011;18726;44.732;10.550;2022-07-17T09:34:05;8.77;;;6.40;;
32236;SDS011;18726;44.732;10.550;2022-07-17T09:37:24;7.90;;;7.10;;
32236;SDS011;18726;44.732;10.550;2022-07-17T09:40:29;6.85;;;6.25;;
32236;SDS011;18726;44.732;10.550;2022-07-17T09:46:56;9.85;;;6.97;;
32236;SDS011;18726;44.732;10.550;2022-07-17T09:50:01;7.43;;;6.75;;
32236;SDS011;18726;44.732;10.550;2022-07-17T09:53:06;10.57;;;7.03;;
32236;SDS011;18726;44.732;10.550;2022-07-17T09:56:11;6.82;;;6.22;;
32236;SDS011;18726;44.732;10.550;2022-07-17T09:59:18;8.50;;;6.70;;
32236;SDS011;18726;44.732;10.550;2022-07-17T10:02:22;7.28;;;6.18;;
32236;SDS011;18726;44.732;10.550;2022-07-17T10:05:26;8.18;;;6.45;;
32236;SDS011;18726;44.732;10.550;2022-07-17T10:08:30;8.48;;;7.03;;
32236;SDS011;18726;44.732;10.550;2022-07-17T10:11:36;7.88;;;7.07;;
32236;SDS011;18726;44.732;10.550;2022-07-17T10:14:41;9.02;;;7.00;;
32236;SDS011;18726;44.732;10.550;2022-07-17T10:17:45;7.03;;;6.25;;
32236;SDS011;18726;44.732;10.550;2022-07-17T10:20:49;8.68;;;6.25;;
32236;SDS011;18726;44.732;10.550;2022-07-17T10:26:56;10.18;;;6.70;;
32236;SDS011;18726;44.732;10.550;2022-07-17T10:33:08;11.75;;;6.57;;
32236;SDS011;18726;44.732;10.550;2022-07-17T10:36:12;17.40;;;6.05;;
32236;SDS011;18726;44.732;10.550;2022-07-17T10:39:17;6.60;;;5.88;;
32236;SDS011;18726;44.732;10.550;2022-07-17T10:42:40;9.40;;;5.95;;
32236;SDS011;18726;44.732;10.550;2022-07-17T10:45:53;8.25;;;5.57;;
32236;SDS011;18726;44.732;10.550;2022-07-17T10:48:57;14.00;;;5.88;;
32236;SDS011;18726;44.732;10.550;2022-07-17T10:52:01;11.18;;;5.68;;
32236;SDS011;18726;44.732;10.550;2022-07-17T10:55:17;13.60;;;6.13;;
32236;SDS011;18726;44.732;10.550;2022-07-17T10:58:26;8.90;;;5.57;;
32236;SDS011;18726;44.732;10.550;2022-07-17T11:01:31;12.27;;;6.10;;
32236;SDS011;18726;44.732;10.550;2022-07-17T11:04:35;7.40;;;5.45;;
32236;SDS011;18726;44.732;10.550;2022-07-17T11:07:50;9.68;;;5.43;;
32236;SDS011;18726;44.732;10.550;2022-07-17T11:10:55;7.53;;;5.30;;
32236;SDS011;18726;44.732;10.550;2022-07-17T11:17:22;8.73;;;6.22;;
32236;SDS011;18726;44.732;10.550;2022-07-17T11:20:26;7.72;;;6.00;;
32236;SDS011;18726;44.732;10.550;2022-07-17T11:23:32;6.40;;;5.80;;
32236;SDS011;18726;44.732;10.550;2022-07-17T11:26:37;10.90;;;6.05;;
32236;SDS011;18726;44.732;10.550;2022-07-17T11:29:41;6.65;;;5.68;;
32236;SDS011;18726;44.732;10.550;2022-07-17T11:32:45;8.18;;;5.35;;
32236;SDS011;18726;44.732;10.550;2022-07-17T11:35:49;9.52;;;5.78;;
32236;SDS011;18726;44.732;10.550;2022-07-17T11:38:55;12.40;;;6.45;;
32236;SDS011;18726;44.732;10.550;2022-07-17T11:42:00;8.55;;;6.28;;
32236;SDS011;18726;44.732;10.550;2022-07-17T11:45:03;5.90;;;5.32;;
32236;SDS011;18726;44.732;10.550;2022-07-17T11:48:07;10.05;;;5.72;;
32236;SDS011;18726;44.732;10.550;2022-07-17T11:51:11;6.97;;;6.20;;
32236;SDS011;18726;44.732;10.550;2022-07-17T11:54:16;8.38;;;5.85;;
32236;SDS011;18726;44.732;10.550;2022-07-17T11:57:20;6.05;;;5.45;;
32236;SDS011;18726;44.732;10.550;2022-07-17T12:00:25;6.43;;;5.65;;
32236;SDS011;18726;44.732;10.550;2022-07-17T12:03:29;11.77;;;6.30;;
32236;SDS011;18726;44.732;10.550;2022-07-17T12:06:32;8.45;;;5.40;;
32236;SDS011;18726;44.732;10.550;2022-07-17T12:09:36;6.18;;;5.63;;
32236;SDS011;18726;44.732;10.550;2022-07-17T12:12:50;13.57;;;5.97;;
32236;SDS011;18726;44.732;10.550;2022-07-17T12:16:17;9.82;;;5.45;;
32236;SDS011;18726;44.732;10.550;2022-07-17T12:19:39;6.90;;;5.55;;
32236;SDS011;18726;44.732;10.550;2022-07-17T12:22:46;6.55;;;5.45;;
32236;SDS011;18726;44.732;10.550;2022-07-17T12:25:50;6.93;;;5.18;;
32236;SDS011;18726;44.732;10.550;2022-07-17T12:28:54;6.95;;;4.97;;
32236;SDS011;18726;44.732;10.550;2022-07-17T12:32:05;14.05;;;5.53;;
32236;SDS011;18726;44.732;10.550;2022-07-17T12:35:15;6.53;;;5.03;;
32236;SDS011;18726;44.732;10.550;2022-07-17T12:38:19;5.65;;;5.15;;
32236;SDS011;18726;44.732;10.550;2022-07-17T12:41:23;8.13;;;5.47;;
32236;SDS011;18726;44.732;10.550;2022-07-17T12:44:27;6.30;;;5.18;;
32236;SDS011;18726;44.732;10.550;2022-07-17T12:47:30;7.82;;;5.45;;
32236;SDS011;18726;44.732;10.550;2022-07-17T12:50:33;9.40;;;5.75;;
32236;SDS011;18726;44.732;10.550;2022-07-17T12:53:38;6.53;;;5.30;;
32236;SDS011;18726;44.732;10.550;2022-07-17T12:56:43;8.25;;;5.45;;
32236;SDS011;18726;44.732;10.550;2022-07-17T12:59:49;5.45;;;5.00;;
32236;SDS011;18726;44.732;10.550;2022-07-17T13:02:53;5.57;;;5.05;;
32236;SDS011;18726;44.732;10.550;2022-07-17T13:05:57;6.30;;;5.60;;
32236;SDS011;18726;44.732;10.550;2022-07-17T13:09:01;9.10;;;6.82;;
32236;SDS011;18726;44.732;10.550;2022-07-17T13:12:05;5.80;;;5.22;;
32236;SDS011;18726;44.732;10.550;2022-07-17T13:15:09;6.82;;;5.30;;
32236;SDS011;18726;44.732;10.550;2022-07-17T13:18:13;5.72;;;5.13;;
32236;SDS011;18726;44.732;10.550;2022-07-17T13:21:17;5.68;;;4.88;;
32236;SDS011;18726;44.732;10.550;2022-07-17T13:24:21;5.50;;;4.75;;
32236;SDS011;18726;44.732;10.550;2022-07-17T13:27:24;6.43;;;5.32;;
32236;SDS011;18726;44.732;10.550;2022-07-17T13:30:28;6.18;;;4.95;;
32236;SDS011;18726;44.732;10.550;2022-07-17T13:33:32;4.80;;;4.40;;
32236;SDS011;18726;44.732;10.550;2022-07-17T13:36:35;6.72;;;5.75;;
32236;SDS011;18726;44.732;10.550;2022-07-17T13:39:39;8.00;;;5.28;;
32236;SDS011;18726;44.732;10.550;2022-07-17T13:42:42;6.57;;;5.15;;
32236;SDS011;18726;44.732;10.550;2022-07-17T13:45:46;6.00;;;4.93;;
32236;SDS011;18726;44.732;10.550;2022-07-17T13:48:49;5.45;;;4.90;;
32236;SDS011;18726;44.732;10.550;2022-07-17T13:51:53;4.95;;;4.50;;
32236;SDS011;18726;44.732;10.550;2022-07-17T13:54:56;5.88;;;5.35;;
32236;SDS011;18726;44.732;10.550;2022-07-17T13:58:00;9.00;;;4.95;;
32236;SDS011;18726;44.732;10.550;2022-07-17T14:01:05;5.25;;;4.70;;
32236;SDS011;18726;44.732;10.550;2022-07-17T14:04:08;6.38;;;5.10;;
32236;SDS011;18726;44.732;10.550;2022-07-17T14:07:12;6.82;;;5.50;;
32236;SDS011;18726;44.732;10.550;2022-07-17T14:10:16;7.20;;;5.05;;
32236;SDS011;18726;44.732;10.550;2022-07-17T14:13:20;6.85;;;5.03;;
32236;SDS011;18726;44.732;10.550;2022-07-17T14:16:24;6.57;;;4.95;;
32236;SDS011;18726;44.732;10.550;2022-07-17T14:19:28;6.13;;;4.93;;
32236;SDS011;18726;44.732;10.550;2022-07-17T14:22:31;7.63;;;4.95;;
32236;SDS011;18726;44.732;10.550;2022-07-17T14:25:35;6.85;;;5.00;;
32236;SDS011;18726;44.732;10.550;2022-07-17T14:28:39;5.32;;;4.82;;
32236;SDS011;18726;44.732;10.550;2022-07-17T14:31:43;7.78;;;4.90;;
32236;SDS011;18726;44.732;10.550;2022-07-17T14:34:46;5.97;;;5.38;;
32236;SDS011;18726;44.732;10.550;2022-07-17T14:37:50;6.15;;;5.25;;
32236;SDS011;18726;44.732;10.550;2022-07-17T14:40:53;5.35;;;4.85;;
32236;SDS011;18726;44.732;10.550;2022-07-17T14:43:57;4.70;;;4.30;;
32236;SDS011;18726;44.732;10.550;2022-07-17T14:47:01;6.38;;;4.68;;
32236;SDS011;18726;44.732;10.550;2022-07-17T14:50:05;5.55;;;4.72;;
32236;SDS011;18726;44.732;10.550;2022-07-17T14:53:11;5.40;;;4.90;;
32236;SDS011;18726;44.732;10.550;2022-07-17T14:56:15;9.18;;;5.30;;
32236;SDS011;18726;44.732;10.550;2022-07-17T14:59:18;5.55;;;5.00;;
32236;SDS011;18726;44.732;10.550;2022-07-17T15:02:22;6.85;;;5.22;;
32236;SDS011;18726;44.732;10.550;2022-07-17T15:05:26;6.57;;;5.70;;
32236;SDS011;18726;44.732;10.550;2022-07-17T15:08:30;5.22;;;4.72;;
32236;SDS011;18726;44.732;10.550;2022-07-17T15:11:34;8.25;;;6.05;;
32236;SDS011;18726;44.732;10.550;2022-07-17T15:14:38;6.72;;;4.75;;
32236;SDS011;18726;44.732;10.550;2022-07-17T15:17:41;5.13;;;4.55;;
32236;SDS011;18726;44.732;10.550;2022-07-17T15:20:44;5.72;;;4.97;;
32236;SDS011;18726;44.732;10.550;2022-07-17T15:23:48;7.68;;;5.65;;
32236;SDS011;18726;44.732;10.550;2022-07-17T15:26:52;5.97;;;5.05;;
32236;SDS011;18726;44.732;10.550;2022-07-17T15:29:55;5.65;;;5.07;;
32236;SDS011;18726;44.732;10.550;2022-07-17T15:32:59;7.43;;;5.22;;
32236;SDS011;18726;44.732;10.550;2022-07-17T15:36:03;5.40;;;4.90;;
32236;SDS011;18726;44.732;10.550;2022-07-17T15:39:08;5.35;;;4.85;;
32236;SDS011;18726;44.732;10.550;2022-07-17T15:42:11;8.55;;;5.20;;
32236;SDS011;18726;44.732;10.550;2022-07-17T15:45:15;8.55;;;5.07;;
32236;SDS011;18726;44.732;10.550;2022-07-17T15:48:19;6.07;;;4.82;;
32236;SDS011;18726;44.732;10.550;2022-07-17T15:51:24;6.22;;;4.90;;
32236;SDS011;18726;44.732;10.550;2022-07-17T15:54:27;6.40;;;4.88;;
32236;SDS011;18726;44.732;10.550;2022-07-17T15:57:31;6.18;;;4.80;;
32236;SDS011;18726;44.732;10.550;2022-07-17T16:00:35;4.90;;;4.40;;
32236;SDS011;18726;44.732;10.550;2022-07-17T16:03:39;9.70;;;4.82;;
32236;SDS011;18726;44.732;10.550;2022-07-17T16:06:42;8.20;;;5.35;;
32236;SDS011;18726;44.732;10.550;2022-07-17T16:09:46;6.28;;;5.18;;
32236;SDS011;18726;44.732;10.550;2022-07-17T16:12:50;5.07;;;4.55;;
32236;SDS011;18726;44.732;10.550;2022-07-17T16:15:53;5.50;;;5.00;;
32236;SDS011;18726;44.732;10.550;2022-07-17T16:18:57;5.43;;;4.60;;
32236;SDS011;18726;44.732;10.550;2022-07-17T16:22:01;5.03;;;4.45;;
32236;SDS011;18726;44.732;10.550;2022-07-17T16:25:05;5.68;;;4.60;;
32236;SDS011;18726;44.732;10.550;2022-07-17T16:28:09;5.47;;;4.57;;
32236;SDS011;18726;44.732;10.550;2022-07-17T16:31:12;6.90;;;5.35;;
32236;SDS011;18726;44.732;10.550;2022-07-17T16:34:16;6.53;;;4.60;;
32236;SDS011;18726;44.732;10.550;2022-07-17T16:37:22;6.28;;;4.65;;
32236;SDS011;18726;44.732;10.550;2022-07-17T16:40:25;5.30;;;4.45;;
32236;SDS011;18726;44.732;10.550;2022-07-17T16:43:30;5.55;;;4.93;;
32236;SDS011;18726;44.732;10.550;2022-07-17T16:46:36;9.48;;;5.20;;
32236;SDS011;18726;44.732;10.550;2022-07-17T16:49:40;5.82;;;5.15;;
32236;SDS011;18726;44.732;10.550;2022-07-17T16:52:44;5.53;;;4.68;;
32236;SDS011;18726;44.732;10.550;2022-07-17T16:55:48;6.65;;;5.68;;
32236;SDS011;18726;44.732;10.550;2022-07-17T16:58:52;5.07;;;4.68;;
32236;SDS011;18726;44.732;10.550;2022-07-17T17:01:56;5.57;;;5.05;;
32236;SDS011;18726;44.732;10.550;2022-07-17T17:05:00;5.68;;;5.18;;
32236;SDS011;18726;44.732;10.550;2022-07-17T17:08:04;7.70;;;5.55;;
32236;SDS011;18726;44.732;10.550;2022-07-17T17:11:08;5.60;;;4.68;;
32236;SDS011;18726;44.732;10.550;2022-07-17T17:14:12;10.35;;;5.50;;
32236;SDS011;18726;44.732;10.550;2022-07-17T17:17:16;5.68;;;4.95;;
32236;SDS011;18726;44.732;10.550;2022-07-17T17:20:20;5.28;;;4.78;;
32236;SDS011;18726;44.732;10.550;2022-07-17T17:23:24;9.00;;;5.15;;
32236;SDS011;18726;44.732;10.550;2022-07-17T17:26:27;5.93;;;5.28;;
32236;SDS011;18726;44.732;10.550;2022-07-17T17:29:31;8.85;;;5.45;;
32236;SDS011;18726;44.732;10.550;2022-07-17T17:32:36;9.30;;;5.28;;
32236;SDS011;18726;44.732;10.550;2022-07-17T17:39:11;9.10;;;5.13;;
32236;SDS011;18726;44.732;10.550;2022-07-17T17:42:15;8.27;;;5.75;;
32236;SDS011;18726;44.732;10.550;2022-07-17T17:45:18;6.43;;;5.10;;
32236;SDS011;18726;44.732;10.550;2022-07-17T17:48:22;7.07;;;5.32;;
32236;SDS011;18726;44.732;10.550;2022-07-17T17:51:27;5.78;;;5.20;;
32236;SDS011;18726;44.732;10.550;2022-07-17T17:54:30;6.05;;;5.45;;
32236;SDS011;18726;44.732;10.550;2022-07-17T17:57:34;6.32;;;4.93;;
32236;SDS011;18726;44.732;10.550;2022-07-17T18:00:38;4.82;;;4.20;;
32236;SDS011;18726;44.732;10.550;2022-07-17T18:03:42;5.38;;;4.88;;
32236;SDS011;18726;44.732;10.550;2022-07-17T18:06:46;6.13;;;5.05;;
32236;SDS011;18726;44.732;10.550;2022-07-17T18:09:49;6.45;;;5.32;;
32236;SDS011;18726;44.732;10.550;2022-07-17T18:12:53;8.30;;;5.75;;
32236;SDS011;18726;44.732;10.550;2022-07-17T18:15:57;5.18;;;4.68;;
32236;SDS011;18726;44.732;10.550;2022-07-17T18:19:01;9.30;;;5.18;;